Time;durP1;ratioP1;P1;durP2;ratioP2;P2;SDS_P1;SDS_P2;PMS_P1;PMS_P2;Temp;Humidity;BMP_temperature;BMP_pressure;BME280_temperature;BME280_humidity;BME280_pressure;Samples;Min_cycle;Max_cycle;Signal;HPM_P1;HPM_P2
2021/07/19 00:01:25;;;;;;;5.32;2.85;;;;;;;;;;4970994;28;20446;-83
2021/07/19 00:04:10;;;;;;;6.45;2.97;;;;;;;;;;4967856;28;20023;-83
2021/07/19 00:06:55;;;;;;;5.05;2.60;;;;;;;;;;4966952;28;20142;-83
2021/07/19 00:09:44;;;;;;;3.67;2.60;;;;;;;;;;4971095;28;20033;-82
2021/07/19 00:12:29;;;;;;;5.20;3.50;;;;;;;;;;4970284;28;20121;-83
2021/07/19 00:15:18;;;;;;;5.85;2.88;;;;;;;;;;4970852;28;20061;-83
2021/07/19 00:18:03;;;;;;;8.50;2.97;;;;;;;;;;4970158;28;20038;-82
2021/07/19 00:20:48;;;;;;;4.97;2.88;;;;;;;;;;4968556;28;20257;-82
2021/07/19 00:23:33;;;;;;;6.53;2.72;;;;;;;;;;4970601;28;20023;-82
2021/07/19 00:26:21;;;;;;;9.23;2.92;;;;;;;;;;4966622;28;20169;-82
2021/07/19 00:29:07;;;;;;;5.38;3.22;;;;;;;;;;4968768;28;20054;-82
2021/07/19 00:31:52;;;;;;;6.10;3.33;;;;;;;;;;4970192;28;20026;-82
2021/07/19 00:34:37;;;;;;;2.85;2.55;;;;;;;;;;4967415;28;20019;-82
2021/07/19 00:37:22;;;;;;;4.15;3.20;;;;;;;;;;4969771;28;20477;-82
2021/07/19 00:40:16;;;;;;;4.90;3.17;;;;;;;;;;4968258;28;20378;-83
2021/07/19 00:43:02;;;;;;;8.98;3.30;;;;;;;;;;4969669;28;20470;-82
2021/07/19 00:45:47;;;;;;;6.43;3.17;;;;;;;;;;4953204;28;20023;-82
2021/07/19 00:48:33;;;;;;;4.93;3.03;;;;;;;;;;4970098;28;20042;-82
2021/07/19 00:51:18;;;;;;;7.68;3.03;;;;;;;;;;4967880;28;20497;-82
2021/07/19 00:54:04;;;;;;;5.20;2.85;;;;;;;;;;4969817;28;20027;-82
2021/07/19 00:56:50;;;;;;;7.60;3.90;;;;;;;;;;4970106;28;20038;-82
2021/07/19 00:59:36;;;;;;;9.15;3.72;;;;;;;;;;4968008;28;20371;-82
2021/07/19 01:02:22;;;;;;;5.32;3.30;;;;;;;;;;4969848;28;20034;-83
2021/07/19 01:05:07;;;;;;;5.72;3.33;;;;;;;;;;4969132;28;20524;-83
2021/07/19 01:07:53;;;;;;;5.28;3.05;;;;;;;;;;4969427;28;20473;-83
2021/07/19 01:10:39;;;;;;;6.75;3.05;;;;;;;;;;4968008;28;20034;-84
2021/07/19 01:13:24;;;;;;;5.22;3.03;;;;;;;;;;4969180;28;20034;-84
2021/07/19 01:16:09;;;;;;;5.50;3.40;;;;;;;;;;4963835;28;20027;-82
2021/07/19 01:18:55;;;;;;;7.80;2.97;;;;;;;;;;4950204;29;20482;-83
2021/07/19 01:21:59;;;;;;;6.30;3.55;;;;;;;;;;4949557;29;20031;-84
2021/07/19 01:25:03;;;;;;;8.25;3.40;;;;;;;;;;4950149;29;20031;-83
2021/07/19 01:28:11;;;;;;;5.30;3.33;;;;;;;;;;4950054;29;20027;-83
2021/07/19 01:30:58;;;;;;;4.85;2.38;;;;;;;;;;4948454;28;20027;-82
2021/07/19 01:33:46;;;;;;;5.35;3.03;;;;;;;;;;4949565;29;20121;-83
2021/07/19 01:36:33;;;;;;;4.75;3.30;;;;;;;;;;4949772;29;20027;-82
2021/07/19 01:39:19;;;;;;;6.80;3.60;;;;;;;;;;4949801;29;20031;-82
2021/07/19 01:42:05;;;;;;;5.85;2.88;;;;;;;;;;4949641;29;20047;-82
2021/07/19 01:44:51;;;;;;;5.45;3.17;;;;;;;;;;4949844;29;20117;-83
2021/07/19 01:47:37;;;;;;;8.05;3.35;;;;;;;;;;4949495;29;20027;-83
2021/07/19 01:50:22;;;;;;;6.28;3.13;;;;;;;;;;4949757;29;20117;-81
2021/07/19 01:53:08;;;;;;;7.43;3.17;;;;;;;;;;4949567;29;20023;-82
2021/07/19 01:55:53;;;;;;;6.35;3.60;;;;;;;;;;4949498;29;20024;-82
2021/07/19 01:58:38;;;;;;;6.70;3.90;;;;;;;;;;4949659;29;20023;-82
2021/07/19 02:01:25;;;;;;;5.95;3.20;;;;;;;;;;4962683;28;20027;-82
2021/07/19 02:04:10;;;;;;;5.85;3.67;;;;;;;;;;4949580;29;20110;-82
2021/07/19 02:06:56;;;;;;;3.83;3.30;;;;;;;;;;4949099;29;20055;-81
2021/07/19 02:09:41;;;;;;;6.35;3.25;;;;;;;;;;4949271;29;20049;-82
2021/07/19 02:12:26;;;;;;;5.43;3.35;;;;;;;;;;4957279;28;20551;-82
2021/07/19 02:15:13;;;;;;;4.90;3.00;;;;;;;;;;4968390;28;20018;-82
2021/07/19 02:17:59;;;;;;;6.65;3.30;;;;;;;;;;4968517;28;20597;-81
2021/07/19 02:20:45;;;;;;;5.30;3.25;;;;;;;;;;4966960;28;20046;-83
2021/07/19 02:23:31;;;;;;;5.47;3.35;;;;;;;;;;4968578;28;20023;-82
2021/07/19 02:26:18;;;;;;;6.78;3.50;;;;;;;;;;4967397;28;20495;-82
2021/07/19 02:29:04;;;;;;;5.10;3.10;;;;;;;;;;4971872;28;20026;-84
2021/07/19 02:31:49;;;;;;;4.05;3.03;;;;;;;;;;4965441;28;20039;-84
2021/07/19 02:34:36;;;;;;;8.35;3.25;;;;;;;;;;4953121;29;20193;-84
2021/07/19 02:37:22;;;;;;;8.52;3.83;;;;;;;;;;4953207;29;20015;-83
2021/07/19 02:40:08;;;;;;;5.43;3.25;;;;;;;;;;4964651;28;20027;-82
2021/07/19 02:42:58;;;;;;;5.82;2.88;;;;;;;;;;4949964;29;20023;-83
2021/07/19 02:45:43;;;;;;;;;;;;;;;;;;4953089;29;20382;-83
2021/07/19 02:48:29;;;;;;;6.32;3.50;;;;;;;;;;4953075;29;19910;-83
2021/07/19 02:51:15;;;;;;;6.68;3.17;;;;;;;;;;4953132;29;20024;-83
2021/07/19 02:54:01;;;;;;;6.82;3.35;;;;;;;;;;4952322;29;20121;-83
2021/07/19 02:56:47;;;;;;;6.13;2.83;;;;;;;;;;4952908;29;20046;-82
2021/07/19 02:59:32;;;;;;;8.35;3.22;;;;;;;;;;4952429;29;20559;-83
2021/07/19 03:02:20;;;;;;;3.60;2.80;;;;;;;;;;4952891;29;20023;-82
2021/07/19 03:05:10;;;;;;;12.70;3.85;;;;;;;;;;4952407;28;20137;-82
2021/07/19 03:07:57;;;;;;;7.18;3.72;;;;;;;;;;4952607;29;20036;-83
2021/07/19 03:10:44;;;;;;;11.55;4.38;;;;;;;;;;4950834;29;20474;-82
2021/07/19 03:13:30;;;;;;;4.03;2.88;;;;;;;;;;4968033;28;20034;-83
2021/07/19 03:16:16;;;;;;;5.18;3.33;;;;;;;;;;4962416;28;20062;-82
2021/07/19 03:19:03;;;;;;;5.13;3.35;;;;;;;;;;4951939;29;20483;-82
2021/07/19 03:21:51;;;;;;;8.88;3.42;;;;;;;;;;4952033;29;20042;-82
2021/07/19 03:24:36;;;;;;;6.60;3.75;;;;;;;;;;4952151;29;20508;-81
2021/07/19 03:27:22;;;;;;;6.05;3.90;;;;;;;;;;4938486;29;20497;-82
2021/07/19 03:30:08;;;;;;;4.68;3.08;;;;;;;;;;4952452;29;20027;-81
2021/07/19 03:32:53;;;;;;;5.28;3.22;;;;;;;;;;4951907;29;20387;-83
2021/07/19 03:35:38;;;;;;;8.20;3.83;;;;;;;;;;4951597;29;20385;-82
2021/07/19 03:38:24;;;;;;;7.03;3.35;;;;;;;;;;4952126;28;20225;-81
2021/07/19 03:41:11;;;;;;;7.13;3.72;;;;;;;;;;4951481;29;20027;-81
2021/07/19 03:43:57;;;;;;;7.47;3.75;;;;;;;;;;4951987;29;20026;-83
2021/07/19 03:46:43;;;;;;;6.25;3.67;;;;;;;;;;4951559;29;20529;-82
2021/07/19 03:49:30;;;;;;;6.22;3.38;;;;;;;;;;4951763;29;20027;-81
2021/07/19 03:52:15;;;;;;;3.60;2.92;;;;;;;;;;4951812;29;20041;-82
2021/07/19 03:55:01;;;;;;;5.40;3.40;;;;;;;;;;4951126;29;20027;-82
2021/07/19 03:57:46;;;;;;;5.78;3.55;;;;;;;;;;4951444;29;20494;-82
2021/07/19 04:00:32;;;;;;;6.57;3.97;;;;;;;;;;4951557;29;20078;-82
2021/07/19 04:03:23;;;;;;;6.70;3.38;;;;;;;;;;4949654;29;20027;-83
2021/07/19 04:06:11;;;;;;;8.00;3.83;;;;;;;;;;4950737;29;20502;-81
2021/07/19 04:08:56;;;;;;;6.15;3.90;;;;;;;;;;4949727;29;20042;-82
2021/07/19 04:11:42;;;;;;;6.05;3.60;;;;;;;;;;4953115;28;20032;-81
2021/07/19 04:14:27;;;;;;;5.72;3.88;;;;;;;;;;4970289;28;20039;-82
2021/07/19 04:17:13;;;;;;;6.57;3.75;;;;;;;;;;4970325;28;20027;-82
2021/07/19 04:19:58;;;;;;;5.10;3.30;;;;;;;;;;4970300;28;20069;-82
2021/07/19 04:22:44;;;;;;;5.57;3.67;;;;;;;;;;4969949;28;20494;-82
2021/07/19 04:25:29;;;;;;;5.95;3.95;;;;;;;;;;4970351;28;20051;-81
2021/07/19 04:28:21;;;;;;;4.88;3.47;;;;;;;;;;4970557;28;20018;-82
2021/07/19 04:31:06;;;;;;;8.18;3.30;;;;;;;;;;4968536;28;20030;-82
2021/07/19 04:33:52;;;;;;;6.93;3.83;;;;;;;;;;4970454;28;20103;-81
2021/07/19 04:36:37;;;;;;;6.45;3.33;;;;;;;;;;4969840;28;20030;-82
2021/07/19 04:39:22;;;;;;;6.30;3.50;;;;;;;;;;4969786;28;20023;-82
2021/07/19 04:42:08;;;;;;;10.45;3.65;;;;;;;;;;4970272;28;20482;-82
2021/07/19 04:44:53;;;;;;;10.80;4.25;;;;;;;;;;4956380;28;20401;-82
2021/07/19 04:47:39;;;;;;;6.63;3.80;;;;;;;;;;4970114;28;20394;-82
2021/07/19 04:50:24;;;;;;;7.03;3.50;;;;;;;;;;4969265;28;20023;-83
2021/07/19 04:53:09;;;;;;;9.48;3.78;;;;;;;;;;4969669;28;20026;-83
2021/07/19 04:55:57;;;;;;;7.82;3.60;;;;;;;;;;4970190;28;20026;-83
2021/07/19 04:58:44;;;;;;;10.30;4.10;;;;;;;;;;4969007;28;20446;-83
2021/07/19 05:01:29;;;;;;;5.40;3.60;;;;;;;;;;4969364;28;20413;-83
2021/07/19 05:04:15;;;;;;;5.82;3.53;;;;;;;;;;4969811;28;20107;-83
2021/07/19 05:07:01;;;;;;;6.40;4.00;;;;;;;;;;4968984;28;20494;-83
2021/07/19 05:09:47;;;;;;;7.30;3.25;;;;;;;;;;4968059;28;20026;-83
2021/07/19 05:12:33;;;;;;;6.70;3.83;;;;;;;;;;4969365;28;20034;-83
2021/07/19 05:15:19;;;;;;;9.15;4.10;;;;;;;;;;4963314;28;20212;-82
2021/07/19 05:18:04;;;;;;;9.27;3.67;;;;;;;;;;4936827;29;20023;-84
2021/07/19 05:20:50;;;;;;;7.43;3.60;;;;;;;;;;4949615;29;20027;-83
2021/07/19 05:23:36;;;;;;;6.55;3.70;;;;;;;;;;4950164;29;20114;-83
2021/07/19 05:26:21;;;;;;;5.95;3.42;;;;;;;;;;4950201;29;20495;-83
2021/07/19 05:29:06;;;;;;;7.40;3.80;;;;;;;;;;4949587;29;20023;-83
2021/07/19 05:31:52;;;;;;;10.50;3.70;;;;;;;;;;4936924;29;20106;-83
2021/07/19 05:34:37;;;;;;;5.97;3.85;;;;;;;;;;4949875;29;20027;-83
2021/07/19 05:37:24;;;;;;;6.53;4.07;;;;;;;;;;4949506;29;20169;-83
2021/07/19 05:40:10;;;;;;;8.43;3.78;;;;;;;;;;4948319;29;20426;-83
2021/07/19 05:42:55;;;;;;;9.90;4.50;;;;;;;;;;4949430;29;20635;-82
2021/07/19 05:45:40;;;;;;;7.22;4.07;;;;;;;;;;4949646;29;20478;-83
2021/07/19 05:48:25;;;;;;;6.50;3.55;;;;;;;;;;4946524;29;20113;-83
2021/07/19 05:51:11;;;;;;;6.97;3.45;;;;;;;;;;4949295;29;20023;-83
2021/07/19 05:53:56;;;;;;;8.15;3.92;;;;;;;;;;4946201;29;20038;-83
2021/07/19 05:56:41;;;;;;;7.03;3.67;;;;;;;;;;4949642;29;20019;-83
2021/07/19 05:59:26;;;;;;;7.13;3.67;;;;;;;;;;4949232;29;20070;-83
2021/07/19 06:02:11;;;;;;;4.50;3.55;;;;;;;;;;4948720;29;20035;-84
2021/07/19 06:04:57;;;;;;;11.15;4.10;;;;;;;;;;4949448;29;20019;-83
2021/07/19 06:07:42;;;;;;;7.38;3.65;;;;;;;;;;4949051;29;20047;-83
2021/07/19 06:10:27;;;;;;;9.57;3.97;;;;;;;;;;4949762;29;20125;-83
2021/07/19 06:13:12;;;;;;;5.40;3.38;;;;;;;;;;4962687;28;20023;-84
2021/07/19 06:15:57;;;;;;;11.63;6.80;;;;;;;;;;4967958;28;20043;-83
2021/07/19 06:18:43;;;;;;;10.77;6.00;;;;;;;;;;4968661;28;20033;-83
2021/07/19 06:21:28;;;;;;;11.45;3.67;;;;;;;;;;4968174;28;20023;-83
2021/07/19 06:24:13;;;;;;;6.10;3.40;;;;;;;;;;4968201;28;20069;-83
2021/07/19 06:26:58;;;;;;;6.32;4.85;;;;;;;;;;4968537;28;20022;-83
2021/07/19 06:29:43;;;;;;;6.38;3.80;;;;;;;;;;4968265;28;20023;-83
2021/07/19 06:32:28;;;;;;;6.38;4.22;;;;;;;;;;4968300;28;20023;-83
2021/07/19 06:35:14;;;;;;;6.22;4.05;;;;;;;;;;4968159;28;20512;-84
2021/07/19 06:37:59;;;;;;;7.13;3.50;;;;;;;;;;4968152;28;20035;-83
2021/07/19 06:40:44;;;;;;;7.93;3.58;;;;;;;;;;4966661;28;20529;-83
2021/07/19 06:43:29;;;;;;;7.30;3.63;;;;;;;;;;4955040;28;20027;-83
2021/07/19 06:46:14;;;;;;;8.25;3.63;;;;;;;;;;4968053;28;20101;-83
2021/07/19 06:49:00;;;;;;;8.80;3.58;;;;;;;;;;4968580;28;20470;-83
2021/07/19 06:51:45;;;;;;;8.35;3.83;;;;;;;;;;4968048;28;20047;-84
2021/07/19 06:54:30;;;;;;;8.93;4.00;;;;;;;;;;4954629;28;20110;-84
2021/07/19 06:57:19;;;;;;;7.60;4.60;;;;;;;;;;4965043;28;20147;-82
2021/07/19 07:00:08;;;;;;;5.65;4.05;;;;;;;;;;4965963;28;20022;-82
2021/07/19 07:02:53;;;;;;;;;;;;;;;;;;4968792;28;20241;-83
2021/07/19 07:05:38;;;;;;;11.65;3.78;;;;;;;;;;4964560;28;19924;-83
2021/07/19 07:08:24;;;;;;;5.53;3.53;;;;;;;;;;4967728;28;20501;-83
2021/07/19 07:11:09;;;;;;;9.32;3.80;;;;;;;;;;4968237;28;20188;-83
2021/07/19 07:13:55;;;;;;;6.45;3.45;;;;;;;;;;4951997;29;20187;-83
2021/07/19 07:16:41;;;;;;;8.18;4.03;;;;;;;;;;4971198;28;20140;-83
2021/07/19 07:19:26;;;;;;;9.65;5.03;;;;;;;;;;4969972;28;20026;-85
2021/07/19 07:22:11;;;;;;;6.00;3.92;;;;;;;;;;4971639;28;20093;-84
2021/07/19 07:24:57;;;;;;;9.68;4.05;;;;;;;;;;4971508;28;20027;-85
2021/07/19 07:27:42;;;;;;;10.52;4.13;;;;;;;;;;4971301;28;20035;-83
2021/07/19 07:30:27;;;;;;;10.93;6.75;;;;;;;;;;4969908;28;20376;-84
2021/07/19 07:33:12;;;;;;;7.30;5.03;;;;;;;;;;4971437;28;20291;-83
2021/07/19 07:35:58;;;;;;;8.07;3.90;;;;;;;;;;4971285;28;20107;-83
2021/07/19 07:38:43;;;;;;;7.90;3.75;;;;;;;;;;4971098;28;20027;-83
2021/07/19 07:41:31;;;;;;;5.47;4.13;;;;;;;;;;4969459;28;20026;-84
2021/07/19 07:44:16;;;;;;;8.27;4.22;;;;;;;;;;4969374;28;20023;-84
2021/07/19 07:47:02;;;;;;;6.50;4.03;;;;;;;;;;4971166;28;20027;-84
2021/07/19 07:49:48;;;;;;;6.90;4.03;;;;;;;;;;4970897;28;20027;-83
2021/07/19 07:52:33;;;;;;;8.18;3.78;;;;;;;;;;4971123;28;20022;-85
2021/07/19 07:55:19;;;;;;;5.93;3.78;;;;;;;;;;4971271;28;20019;-83
2021/07/19 07:58:07;;;;;;;6.15;3.55;;;;;;;;;;4970779;28;20545;-83
2021/07/19 08:00:52;;;;;;;16.13;10.80;;;;;;;;;;4970717;28;20033;-84
2021/07/19 08:03:37;;;;;;;10.60;8.20;;;;;;;;;;4971097;28;20121;-84
2021/07/19 08:06:23;;;;;;;10.88;3.78;;;;;;;;;;4969933;28;20161;-83
2021/07/19 08:09:08;;;;;;;6.97;3.70;;;;;;;;;;4970885;28;20113;-83
2021/07/19 08:11:54;;;;;;;9.02;3.83;;;;;;;;;;4970612;28;20101;-83
2021/07/19 08:14:39;;;;;;;5.97;3.55;;;;;;;;;;4970496;28;20027;-83
2021/07/19 08:17:25;;;;;;;8.52;4.28;;;;;;;;;;4970901;28;20066;-83
2021/07/19 08:20:11;;;;;;;8.18;4.30;;;;;;;;;;4970448;28;20061;-83
2021/07/19 08:22:56;;;;;;;7.57;4.47;;;;;;;;;;4970297;28;20080;-83
2021/07/19 08:25:42;;;;;;;9.15;3.72;;;;;;;;;;4970265;28;20122;-83
2021/07/19 08:28:27;;;;;;;9.20;4.50;;;;;;;;;;4970300;28;20022;-83
2021/07/19 08:31:12;;;;;;;8.60;4.38;;;;;;;;;;4968712;28;20023;-83
2021/07/19 08:33:57;;;;;;;8.32;4.30;;;;;;;;;;4970285;28;20031;-82
2021/07/19 08:36:43;;;;;;;16.10;4.00;;;;;;;;;;4966745;28;20034;-84
2021/07/19 08:39:28;;;;;;;6.68;3.63;;;;;;;;;;4970163;28;20023;-84
2021/07/19 08:42:13;;;;;;;6.53;3.72;;;;;;;;;;4970032;28;20035;-83
2021/07/19 08:44:58;;;;;;;5.85;4.03;;;;;;;;;;4969984;28;20397;-83
2021/07/19 08:47:45;;;;;;;12.32;5.45;;;;;;;;;;4970185;28;20026;-83
2021/07/19 08:50:30;;;;;;;6.68;3.90;;;;;;;;;;4955981;28;20046;-83
2021/07/19 08:53:16;;;;;;;7.97;3.70;;;;;;;;;;4969372;28;20564;-82
2021/07/19 08:56:02;;;;;;;5.60;3.67;;;;;;;;;;4970125;28;20110;-83
2021/07/19 08:58:48;;;;;;;6.95;3.90;;;;;;;;;;4969572;28;20026;-82
2021/07/19 09:01:34;;;;;;;9.32;4.03;;;;;;;;;;4969575;28;20042;-83
2021/07/19 09:04:21;;;;;;;7.65;4.20;;;;;;;;;;4966415;28;20022;-83
2021/07/19 09:07:07;;;;;;;7.72;4.53;;;;;;;;;;4969133;28;20078;-83
2021/07/19 09:09:52;;;;;;;7.63;3.90;;;;;;;;;;4968208;28;20073;-83
2021/07/19 09:12:43;;;;;;;7.78;3.60;;;;;;;;;;4963317;28;20019;-84
2021/07/19 09:15:36;;;;;;;7.25;4.30;;;;;;;;;;4959059;28;20053;-84
2021/07/19 09:18:24;;;;;;;9.40;3.75;;;;;;;;;;4969269;28;20031;-83
2021/07/19 09:21:27;;;;;;;6.03;3.75;;;;;;;;;;4969389;28;20030;-84
2021/07/19 09:24:14;;;;;;;7.05;3.63;;;;;;;;;;4969397;28;20105;-84
2021/07/19 09:26:59;;;;;;;8.63;4.47;;;;;;;;;;4968902;28;20046;-84
2021/07/19 09:29:45;;;;;;;8.55;4.18;;;;;;;;;;4969229;28;20078;-84
2021/07/19 09:32:30;;;;;;;6.70;4.07;;;;;;;;;;4969240;28;20014;-84
2021/07/19 09:35:15;;;;;;;7.15;3.67;;;;;;;;;;4968653;28;20434;-84
2021/07/19 09:38:02;;;;;;;13.23;8.63;;;;;;;;;;4969417;28;20027;-84
2021/07/19 09:40:55;;;;;;;7.18;5.03;;;;;;;;;;4966922;28;20027;-84
2021/07/19 09:43:40;;;;;;;6.18;4.13;;;;;;;;;;4969491;28;20054;-84
2021/07/19 09:46:35;;;;;;;6.45;3.92;;;;;;;;;;4968077;28;20034;-84
2021/07/19 09:49:26;;;;;;;11.02;4.13;;;;;;;;;;4969204;28;20108;-83
2021/07/19 09:52:12;;;;;;;6.90;3.72;;;;;;;;;;4968786;28;20023;-83
2021/07/19 09:54:57;;;;;;;6.20;3.70;;;;;;;;;;4968807;28;20366;-84
2021/07/19 09:57:51;;;;;;;5.68;3.50;;;;;;;;;;4968535;28;20166;-83
2021/07/19 10:00:45;;;;;;;6.75;3.60;;;;;;;;;;4968749;28;20026;-84
2021/07/19 10:03:30;;;;;;;5.68;4.63;;;;;;;;;;4968523;28;20038;-84
2021/07/19 10:06:15;;;;;;;8.18;6.07;;;;;;;;;;4968437;28;20082;-84
2021/07/19 10:09:01;;;;;;;6.57;3.97;;;;;;;;;;4968243;28;20042;-83
2021/07/19 10:11:53;;;;;;;6.00;3.75;;;;;;;;;;4967032;28;20033;-83
2021/07/19 10:14:39;;;;;;;6.13;3.72;;;;;;;;;;4954846;28;20030;-84
2021/07/19 10:17:24;;;;;;;7.70;3.92;;;;;;;;;;4955498;28;20026;-84
2021/07/19 10:20:10;;;;;;;6.00;4.05;;;;;;;;;;4968391;28;20389;-84
2021/07/19 10:22:55;;;;;;;6.70;3.78;;;;;;;;;;4968469;28;20063;-84
2021/07/19 10:25:41;;;;;;;7.53;4.13;;;;;;;;;;4968847;28;20030;-84
2021/07/19 10:28:27;;;;;;;6.07;3.55;;;;;;;;;;4968312;28;20022;-84
2021/07/19 10:31:12;;;;;;;6.88;4.10;;;;;;;;;;4966772;28;20027;-84
2021/07/19 10:33:58;;;;;;;7.35;3.55;;;;;;;;;;4968572;28;20101;-84
2021/07/19 10:36:47;;;;;;;12.73;3.28;;;;;;;;;;4968109;28;20027;-84
2021/07/19 10:39:36;;;;;;;9.57;5.82;;;;;;;;;;4968790;28;20034;-84
2021/07/19 10:42:32;;;;;;;12.25;6.00;;;;;;;;;;4954727;28;20043;-84
2021/07/19 10:45:17;;;;;;;7.80;3.67;;;;;;;;;;4968463;28;20393;-84
2021/07/19 10:48:03;;;;;;;7.60;4.07;;;;;;;;;;4970261;28;20481;-84
2021/07/19 10:50:48;;;;;;;7.35;3.78;;;;;;;;;;4972436;28;20034;-83
2021/07/19 10:53:33;;;;;;;6.13;3.85;;;;;;;;;;4972131;28;20085;-83
2021/07/19 10:56:26;;;;;;;9.15;3.33;;;;;;;;;;4972048;28;20053;-83
2021/07/19 10:59:42;;;;;;;7.50;3.50;;;;;;;;;;4971977;28;20023;-84
2021/07/19 11:02:28;;;;;;;7.43;3.60;;;;;;;;;;4966728;28;20109;-84
2021/07/19 11:05:15;;;;;;;7.60;3.42;;;;;;;;;;4971771;28;20033;-85
2021/07/19 11:08:03;;;;;;;5.20;2.97;;;;;;;;;;4958194;28;20520;-84
2021/07/19 11:10:49;;;;;;;4.30;2.95;;;;;;;;;;4958701;28;20357;-84
2021/07/19 11:13:35;;;;;;;5.00;3.22;;;;;;;;;;4935333;29;20420;-84
2021/07/19 11:16:20;;;;;;;5.85;3.40;;;;;;;;;;4951935;28;20018;-84
2021/07/19 11:19:06;;;;;;;6.22;3.33;;;;;;;;;;4958237;28;20089;-84
2021/07/19 11:21:51;;;;;;;7.68;3.60;;;;;;;;;;4957774;28;20026;-84
2021/07/19 11:24:43;;;;;;;8.70;3.03;;;;;;;;;;4958749;28;20093;-84
2021/07/19 11:27:49;;;;;;;5.13;2.95;;;;;;;;;;4957838;28;20081;-84
2021/07/19 11:30:34;;;;;;;5.97;2.92;;;;;;;;;;4959789;28;20410;-84
2021/07/19 11:33:20;;;;;;;6.35;3.40;;;;;;;;;;4958083;28;20037;-84
2021/07/19 11:36:20;;;;;;;6.38;3.17;;;;;;;;;;4957354;28;20382;-84
2021/07/19 11:39:15;;;;;;;4.18;2.50;;;;;;;;;;4957484;28;20038;-84
2021/07/19 11:42:01;;;;;;;5.53;2.88;;;;;;;;;;4957676;28;20525;-84
2021/07/19 11:44:46;;;;;;;3.88;2.65;;;;;;;;;;4957560;28;20109;-84
2021/07/19 11:47:32;;;;;;;4.07;2.72;;;;;;;;;;4957746;28;20474;-84
2021/07/19 11:50:22;;;;;;;4.63;2.58;;;;;;;;;;4957999;28;20034;-84
2021/07/19 11:53:07;;;;;;;4.57;2.70;;;;;;;;;;4958001;28;20106;-84
2021/07/19 11:56:01;;;;;;;6.80;2.78;;;;;;;;;;4957789;28;20442;-83
2021/07/19 11:58:54;;;;;;;4.80;2.42;;;;;;;;;;4957389;28;20511;-83
2021/07/19 12:01:39;;;;;;;5.35;2.78;;;;;;;;;;4956542;28;20031;-83
2021/07/19 12:04:41;;;;;;;5.72;2.90;;;;;;;;;;4957086;28;20425;-82
2021/07/19 12:07:26;;;;;;;3.90;1.85;;;;;;;;;;4969909;28;20498;-84
2021/07/19 12:10:11;;;;;;;3.42;1.90;;;;;;;;;;4970956;28;20038;-84
2021/07/19 12:12:57;;;;;;;4.47;2.10;;;;;;;;;;4964353;28;20066;-84
2021/07/19 12:15:55;;;;;;;9.50;2.35;;;;;;;;;;4962338;28;20414;-84
2021/07/19 12:18:50;;;;;;;6.28;2.75;;;;;;;;;;4970077;28;20054;-83
2021/07/19 12:21:36;;;;;;;3.80;2.30;;;;;;;;;;4970060;28;20045;-83
2021/07/19 12:24:25;;;;;;;4.13;2.35;;;;;;;;;;4970771;28;20023;-83
2021/07/19 12:27:10;;;;;;;7.60;4.25;;;;;;;;;;4970119;28;20492;-84
2021/07/19 12:29:56;;;;;;;13.57;7.78;;;;;;;;;;4970365;28;20039;-83
2021/07/19 12:32:41;;;;;;;7.40;2.88;;;;;;;;;;4970768;28;20022;-84
2021/07/19 12:35:29;;;;;;;3.35;2.17;;;;;;;;;;4970114;28;20030;-83
2021/07/19 12:38:14;;;;;;;3.70;2.27;;;;;;;;;;4970582;28;20102;-84
2021/07/19 12:41:00;;;;;;;3.42;1.83;;;;;;;;;;4968436;28;20286;-83
2021/07/19 12:43:45;;;;;;;6.07;2.35;;;;;;;;;;4969862;28;20034;-83
2021/07/19 12:46:31;;;;;;;3.78;2.13;;;;;;;;;;4970436;28;20031;-83
2021/07/19 12:49:24;;;;;;;5.15;2.42;;;;;;;;;;4969842;28;20022;-83
2021/07/19 12:52:11;;;;;;;6.40;3.42;;;;;;;;;;4954939;28;20023;-84
2021/07/19 12:55:03;;;;;;;4.25;2.00;;;;;;;;;;4969573;28;20026;-83
2021/07/19 12:57:49;;;;;;;3.55;2.47;;;;;;;;;;4970129;28;20066;-83
2021/07/19 13:00:35;;;;;;;4.95;2.40;;;;;;;;;;4969120;28;20525;-84
2021/07/19 13:03:27;;;;;;;3.88;2.20;;;;;;;;;;4969865;28;20031;-84
2021/07/19 13:06:12;;;;;;;3.97;2.00;;;;;;;;;;4969388;28;20085;-84
2021/07/19 13:08:57;;;;;;;5.30;2.50;;;;;;;;;;4969650;28;20229;-84
2021/07/19 13:11:43;;;;;;;3.10;2.22;;;;;;;;;;4969295;28;20105;-83
2021/07/19 13:14:41;;;;;;;8.43;2.85;;;;;;;;;;4969311;28;20034;-84
2021/07/19 13:17:30;;;;;;;6.47;2.67;;;;;;;;;;4969501;28;20073;-83
2021/07/19 13:20:16;;;;;;;5.22;2.20;;;;;;;;;;4967679;28;20061;-83
2021/07/19 13:23:11;;;;;;;5.40;2.60;;;;;;;;;;4969624;28;20034;-84
2021/07/19 13:26:03;;;;;;;6.75;3.25;;;;;;;;;;4967544;28;20015;-84
2021/07/19 13:28:49;;;;;;;3.90;2.35;;;;;;;;;;4965723;28;20031;-84
2021/07/19 13:31:34;;;;;;;6.40;2.40;;;;;;;;;;4969483;28;20040;-84
2021/07/19 13:34:19;;;;;;;6.40;2.50;;;;;;;;;;4969270;28;20027;-83
2021/07/19 13:37:06;;;;;;;4.88;2.40;;;;;;;;;;4969170;28;20115;-84
2021/07/19 13:39:51;;;;;;;6.28;2.72;;;;;;;;;;4967830;28;20029;-83
2021/07/19 13:42:36;;;;;;;4.93;2.78;;;;;;;;;;4968855;28;20022;-84
2021/07/19 13:45:22;;;;;;;5.00;2.95;;;;;;;;;;4969182;28;20055;-84
2021/07/19 13:48:07;;;;;;;7.30;2.80;;;;;;;;;;4968910;28;20101;-84
2021/07/19 13:50:53;;;;;;;8.43;2.60;;;;;;;;;;4967108;28;20061;-85
2021/07/19 13:53:38;;;;;;;7.60;3.20;;;;;;;;;;4969188;28;20033;-84
2021/07/19 13:56:23;;;;;;;5.40;3.00;;;;;;;;;;4965575;28;20090;-84
2021/07/19 13:59:08;;;;;;;5.35;2.75;;;;;;;;;;4968580;28;20026;-84
2021/07/19 14:01:54;;;;;;;6.85;3.90;;;;;;;;;;4955194;28;20023;-84
2021/07/19 14:04:39;;;;;;;9.40;5.15;;;;;;;;;;4968414;28;20019;-84
2021/07/19 14:07:24;;;;;;;8.30;4.25;;;;;;;;;;4964871;28;20067;-84
2021/07/19 14:10:10;;;;;;;5.68;2.92;;;;;;;;;;4968983;28;20134;-85
2021/07/19 14:12:55;;;;;;;6.72;2.92;;;;;;;;;;4962541;28;20034;-85
2021/07/19 14:15:41;;;;;;;5.43;2.78;;;;;;;;;;4958231;28;20026;-85
2021/07/19 14:18:26;;;;;;;5.55;2.63;;;;;;;;;;4968583;28;20462;-85
2021/07/19 14:21:13;;;;;;;5.55;2.92;;;;;;;;;;4965918;28;20030;-84
2021/07/19 14:23:59;;;;;;;5.60;2.80;;;;;;;;;;4968042;28;20113;-84
2021/07/19 14:26:44;;;;;;;9.35;2.75;;;;;;;;;;4968331;28;20023;-85
2021/07/19 14:29:29;;;;;;;4.85;2.38;;;;;;;;;;4966604;28;20092;-84
2021/07/19 14:32:15;;;;;;;6.75;2.92;;;;;;;;;;4968508;28;20474;-84
2021/07/19 14:35:01;;;;;;;3.42;2.40;;;;;;;;;;4968225;28;20045;-83
2021/07/19 14:37:46;;;;;;;6.15;2.45;;;;;;;;;;4968186;28;20035;-82
2021/07/19 14:40:31;;;;;;;8.43;3.38;;;;;;;;;;4967008;28;20038;-84
2021/07/19 14:43:19;;;;;;;9.02;3.40;;;;;;;;;;4967699;28;20034;-83
2021/07/19 14:46:05;;;;;;;4.88;3.05;;;;;;;;;;4967969;28;20061;-84
2021/07/19 14:48:51;;;;;;;5.38;2.78;;;;;;;;;;4967788;28;20018;-85
2021/07/19 14:51:36;;;;;;;7.10;3.00;;;;;;;;;;4964671;28;20037;-84
2021/07/19 14:54:21;;;;;;;5.50;3.00;;;;;;;;;;4968640;28;20607;-84
2021/07/19 14:57:09;;;;;;;11.68;3.35;;;;;;;;;;4968121;28;20030;-84
2021/07/19 14:59:54;;;;;;;5.75;3.13;;;;;;;;;;4968109;28;20038;-84
2021/07/19 15:02:39;;;;;;;6.13;3.55;;;;;;;;;;4968205;28;20133;-84
2021/07/19 15:05:25;;;;;;;4.70;2.83;;;;;;;;;;4967526;28;20126;-84
2021/07/19 15:08:10;;;;;;;5.28;3.25;;;;;;;;;;4954697;28;20130;-84
2021/07/19 15:10:55;;;;;;;4.32;3.10;;;;;;;;;;4955208;28;20034;-83
2021/07/19 15:13:40;;;;;;;7.70;2.72;;;;;;;;;;4937041;29;20362;-84
2021/07/19 15:16:27;;;;;;;6.00;2.67;;;;;;;;;;4951919;28;20497;-83
2021/07/19 15:19:13;;;;;;;6.90;2.60;;;;;;;;;;4954427;28;20046;-83
2021/07/19 15:21:58;;;;;;;4.70;2.78;;;;;;;;;;4954078;28;20022;-83
2021/07/19 15:24:44;;;;;;;6.43;2.85;;;;;;;;;;4951175;28;20027;-83
2021/07/19 15:27:29;;;;;;;9.35;3.80;;;;;;;;;;4954310;28;20110;-83
2021/07/19 15:30:16;;;;;;;11.73;4.65;;;;;;;;;;4954477;28;20134;-83
2021/07/19 15:33:01;;;;;;;8.50;4.18;;;;;;;;;;4954808;28;20031;-84
2021/07/19 15:35:46;;;;;;;5.50;3.08;;;;;;;;;;4957584;28;20431;-83
2021/07/19 15:38:31;;;;;;;7.20;3.38;;;;;;;;;;4957999;28;20062;-83
2021/07/19 15:41:16;;;;;;;5.18;3.35;;;;;;;;;;4957153;28;20050;-83
2021/07/19 15:44:02;;;;;;;6.90;3.60;;;;;;;;;;4957213;28;20105;-83
2021/07/19 15:46:47;;;;;;;9.20;4.05;;;;;;;;;;4957749;28;20348;-83
2021/07/19 15:49:32;;;;;;;6.70;3.63;;;;;;;;;;4957303;28;20110;-84
2021/07/19 15:52:18;;;;;;;7.47;3.50;;;;;;;;;;4957327;28;20019;-84
2021/07/19 15:55:06;;;;;;;6.00;3.60;;;;;;;;;;4957711;28;20109;-83
2021/07/19 15:57:52;;;;;;;12.23;3.45;;;;;;;;;;4957202;28;20058;-84
2021/07/19 16:00:37;;;;;;;8.38;3.42;;;;;;;;;;4957527;28;20133;-84
2021/07/19 16:03:22;;;;;;;9.25;3.92;;;;;;;;;;4955479;28;20026;-85
2021/07/19 16:06:07;;;;;;;8.98;3.63;;;;;;;;;;4959801;28;20119;-85
2021/07/19 16:08:53;;;;;;;7.88;3.88;;;;;;;;;;4969149;28;20142;-85
2021/07/19 16:11:39;;;;;;;8.27;4.28;;;;;;;;;;4970352;28;20026;-84
2021/07/19 16:14:24;;;;;;;6.50;3.50;;;;;;;;;;4970890;28;20085;-85
2021/07/19 16:17:09;;;;;;;9.00;3.38;;;;;;;;;;4970915;28;20031;-84
2021/07/19 16:19:54;;;;;;;6.97;3.40;;;;;;;;;;4968408;28;20033;-84
2021/07/19 16:22:40;;;;;;;10.15;3.92;;;;;;;;;;4970330;28;20030;-84
2021/07/19 16:25:27;;;;;;;4.85;3.38;;;;;;;;;;4970487;28;20673;-83
2021/07/19 16:28:12;;;;;;;11.52;4.00;;;;;;;;;;4970171;28;20030;-85
2021/07/19 16:30:57;;;;;;;7.60;3.63;;;;;;;;;;4970412;28;20371;-84
2021/07/19 16:33:42;;;;;;;9.50;3.95;;;;;;;;;;4970365;28;20182;-84
2021/07/19 16:36:29;;;;;;;5.60;3.58;;;;;;;;;;4970182;28;20030;-84
2021/07/19 16:39:14;;;;;;;8.57;4.25;;;;;;;;;;4957214;28;20035;-84